createdAt,value
2024-04-19T00:09:57.525Z,6.7
2024-04-19T00:19:57.493Z,6.6
2024-04-19T00:29:57.470Z,6.5
2024-04-19T00:39:57.446Z,6.6
2024-04-19T00:49:57.418Z,6.7
2024-04-19T00:59:57.390Z,6.7
2024-04-19T01:09:57.349Z,6.8
2024-04-19T01:19:57.325Z,6.7
2024-04-19T01:29:57.300Z,6.6
2024-04-19T01:39:57.355Z,6.4
2024-04-19T01:49:57.256Z,6.2
2024-04-19T01:59:57.230Z,6.1
2024-04-19T02:09:57.191Z,6.2
2024-04-19T02:19:57.162Z,6.2
2024-04-19T02:29:57.141Z,6.3
2024-04-19T02:39:57.093Z,6.2
2024-04-19T02:49:57.080Z,6.1
2024-04-19T02:59:57.059Z,6
2024-04-19T03:09:57.024Z,5.9
2024-04-19T03:19:56.994Z,5.8
2024-04-19T03:29:56.985Z,5.8
2024-04-19T03:39:56.930Z,5.7
2024-04-19T03:49:57.015Z,5.7
2024-04-19T03:59:56.879Z,5.7
2024-04-19T04:09:56.850Z,5.6
2024-04-19T04:19:56.836Z,5.6
2024-04-19T04:29:56.809Z,5.5
2024-04-19T04:39:56.796Z,5.5
2024-04-19T04:49:56.768Z,5.5
2024-04-19T04:59:56.731Z,5.4
2024-04-19T05:09:56.709Z,5.3
2024-04-19T05:19:56.690Z,5.3
2024-04-19T05:29:56.669Z,5.3
2024-04-19T05:39:56.755Z,5.3
2024-04-19T05:49:56.590Z,5.2
2024-04-19T05:59:56.612Z,5.2
2024-04-19T06:09:56.633Z,5.2
2024-04-19T06:19:56.520Z,5.1
2024-04-19T06:29:56.740Z,5.1
2024-04-19T06:39:56.475Z,5.1
2024-04-19T06:49:56.426Z,5.1
2024-04-19T06:59:56.469Z,5.2
2024-04-19T07:09:56.390Z,5.3
2024-04-19T07:19:56.721Z,5.3
2024-04-19T07:29:56.650Z,5.4
2024-04-19T07:39:56.443Z,5.6
2024-04-19T07:49:56.283Z,5.7
2024-04-19T07:59:56.603Z,6.3
2024-04-19T08:09:56.568Z,6.6
2024-04-19T08:19:56.172Z,6.8
2024-04-19T08:29:56.298Z,7
2024-04-19T08:39:56.131Z,7.1
2024-04-19T08:49:56.110Z,7.3
2024-04-19T08:59:56.174Z,7.4
2024-04-19T09:09:56.070Z,7.7
2024-04-19T09:19:56.025Z,7.9
2024-04-19T09:29:56.104Z,8.1
2024-04-19T09:39:55.986Z,8.3
2024-04-19T09:49:56.020Z,8.4
2024-04-19T09:59:56.030Z,8.4
2024-04-19T10:09:55.919Z,8.5
2024-04-19T10:19:56.051Z,8.5
2024-04-19T10:29:55.835Z,8.6
2024-04-19T10:39:56.059Z,8.8
2024-04-19T10:49:55.863Z,8.9
2024-04-19T10:59:55.868Z,8.8
2024-04-19T11:09:55.699Z,8.3
2024-04-19T11:19:55.692Z,7.8
2024-04-19T11:29:55.861Z,7.8
2024-04-19T11:39:55.658Z,7.8
2024-04-19T11:49:55.639Z,7.8
2024-04-19T11:59:55.608Z,7.9
2024-04-19T12:09:55.561Z,8.1
2024-04-19T12:19:55.652Z,8.4
2024-04-19T12:29:55.472Z,8.5
2024-04-19T12:39:55.507Z,8.5
2024-04-19T12:49:55.437Z,8.6
2024-04-19T12:59:55.417Z,9
2024-04-19T13:09:55.376Z,9.3
2024-04-19T13:19:55.350Z,8.9
2024-04-19T13:29:55.306Z,7.8
2024-04-19T13:39:55.287Z,7.8
2024-04-19T13:49:55.258Z,7.5
2024-04-19T13:59:55.232Z,7.3
2024-04-19T14:09:55.221Z,7
2024-04-19T14:19:55.186Z,7.1
2024-04-19T14:29:55.222Z,7.7
2024-04-19T14:39:55.119Z,8
2024-04-19T14:49:55.103Z,7.7
2024-04-19T14:59:55.061Z,7.8
2024-04-19T15:09:55.017Z,7.8
2024-04-19T15:19:55.023Z,7.9
2024-04-19T15:29:54.987Z,8.2
2024-04-19T15:39:54.980Z,8.2
2024-04-19T15:49:54.960Z,8.2
2024-04-19T15:59:54.892Z,8.5
2024-04-19T16:09:54.878Z,8.6
2024-04-19T16:19:54.865Z,8
2024-04-19T16:29:55.060Z,7.7
2024-04-19T16:39:54.784Z,7.7
2024-04-19T16:49:54.923Z,7.8
2024-04-19T16:59:54.762Z,7.9
2024-04-19T17:09:54.694Z,8.1
2024-04-19T17:19:54.697Z,8
2024-04-19T17:29:54.769Z,8
2024-04-19T17:39:54.614Z,7.8
2024-04-19T17:49:54.580Z,8
2024-04-19T17:59:54.611Z,8
2024-04-19T18:09:54.566Z,7.8
2024-04-19T18:19:54.538Z,7.1
2024-04-19T18:29:54.472Z,6.7
2024-04-19T18:39:54.432Z,6.5
2024-04-19T18:49:54.416Z,6.4
2024-04-19T18:59:54.395Z,6.4
2024-04-19T19:09:54.351Z,6.3
2024-04-19T19:19:54.340Z,6.1
2024-04-19T19:29:54.374Z,6
2024-04-19T19:39:54.271Z,6.1
2024-04-19T19:49:54.258Z,6.2
2024-04-19T19:59:54.225Z,6.1
2024-04-19T20:09:54.255Z,6.3
2024-04-19T20:19:54.177Z,6.3
2024-04-19T20:29:54.184Z,6.2
2024-04-19T20:39:54.158Z,6.2
2024-04-19T20:49:54.191Z,6.3
2024-04-19T20:59:54.069Z,6.2
2024-04-19T21:09:54.037Z,6.1
2024-04-19T21:19:54.025Z,6
2024-04-19T21:29:54.236Z,6
2024-04-19T21:39:53.946Z,6.1
2024-04-19T21:49:53.926Z,6.1
2024-04-19T21:59:53.891Z,6
2024-04-19T22:09:53.869Z,6
2024-04-19T22:19:53.848Z,5.9
2024-04-19T22:29:53.807Z,6
2024-04-19T22:39:53.781Z,6
2024-04-19T22:49:53.776Z,5.9
2024-04-19T22:59:53.756Z,5.9
2024-04-19T23:09:53.716Z,5.9
2024-04-19T23:19:53.686Z,5.8
2024-04-19T23:29:53.663Z,5.7
2024-04-19T23:39:53.656Z,5.7
2024-04-19T23:49:53.597Z,5.7
2024-04-19T23:59:53.564Z,5.7
